createdAt,value
2023-02-11T00:01:08.180Z,51.90
2023-02-11T00:03:36.573Z,36.50
2023-02-11T00:06:05.793Z,39.60
2023-02-11T00:08:33.904Z,33.80
2023-02-11T00:11:02.269Z,28.90
2023-02-11T00:13:30.822Z,26.50
2023-02-11T00:16:06.305Z,26.00
2023-02-11T00:18:34.675Z,27.00
2023-02-11T00:21:08.978Z,34.70
2023-02-11T00:23:37.193Z,25.10
2023-02-11T00:26:06.296Z,31.40
2023-02-11T00:28:35.609Z,36.40
2023-02-11T00:33:26.797Z,37.70
2023-02-11T00:35:55.229Z,62.90
2023-02-11T00:38:23.724Z,68.20
2023-02-11T00:40:51.921Z,64.80
2023-02-11T00:43:20.302Z,78.80
2023-02-11T00:45:49.419Z,85.10
2023-02-11T00:48:18.216Z,77.00
2023-02-11T00:50:46.482Z,53.40
2023-02-11T00:53:14.782Z,41.40
2023-02-11T00:55:43.155Z,31.70
2023-02-11T00:58:11.636Z,32.50
2023-02-11T01:00:40.293Z,34.10
2023-02-11T01:03:08.576Z,34.80
2023-02-11T01:05:36.959Z,40.30
2023-02-11T01:08:05.397Z,34.60
2023-02-11T01:10:34.176Z,35.60
2023-02-11T01:13:02.873Z,39.40
2023-02-11T01:15:31.691Z,39.60
2023-02-11T01:18:00.700Z,41.60
2023-02-11T01:20:29.507Z,34.60
2023-02-11T01:22:58.922Z,47.00
2023-02-11T01:25:27.553Z,43.50
2023-02-11T01:27:55.832Z,49.70
2023-02-11T01:30:24.208Z,46.40
2023-02-11T01:32:52.670Z,48.90
2023-02-11T01:35:21.170Z,50.50
2023-02-11T01:37:49.455Z,65.50
2023-02-11T01:40:17.723Z,95.80
2023-02-11T01:42:48.872Z,123.60
2023-02-11T01:45:38.327Z,122.10
2023-02-11T01:48:06.773Z,153.10
2023-02-11T01:50:35.400Z,144.60
2023-02-11T01:53:24.808Z,119.30
2023-02-11T01:56:12.641Z,91.30
2023-02-11T01:58:42.002Z,86.40
2023-02-11T02:01:11.115Z,91.20
2023-02-11T02:03:40.106Z,95.70
2023-02-11T02:06:11.295Z,140.00
2023-02-11T02:08:41.204Z,136.80
2023-02-11T02:11:12.895Z,120.10
2023-02-11T02:13:41.254Z,79.90
2023-02-11T02:16:13.370Z,54.40
2023-02-11T02:18:51.355Z,49.00
2023-02-11T02:21:29.558Z,50.60
2023-02-11T02:24:14.212Z,39.00
2023-02-11T02:27:08.672Z,42.80
2023-02-11T02:29:57.625Z,39.70
2023-02-11T02:32:45.045Z,40.40
2023-02-11T02:35:20.893Z,42.90
2023-02-11T02:38:04.368Z,36.90
2023-02-11T02:40:35.646Z,31.10
2023-02-11T02:43:04.116Z,43.30
2023-02-11T02:45:33.054Z,37.60
2023-02-11T02:48:01.420Z,40.60
2023-02-11T02:50:31.650Z,41.70
2023-02-11T02:52:59.893Z,49.80
2023-02-11T02:55:31.467Z,48.10
2023-02-11T02:58:02.482Z,57.80
2023-02-11T03:00:35.240Z,60.60
2023-02-11T03:03:12.623Z,53.90
2023-02-11T03:05:48.657Z,44.10
2023-02-11T03:08:37.325Z,48.00
2023-02-11T03:11:05.596Z,45.90
2023-02-11T03:13:34.824Z,42.80
2023-02-11T03:16:17.845Z,37.90
2023-02-11T03:19:06.567Z,34.80
2023-02-11T03:21:36.911Z,40.30
2023-02-11T03:24:10.008Z,40.30
2023-02-11T03:26:39.533Z,28.30
2023-02-11T03:29:10.392Z,31.50
2023-02-11T03:31:54.492Z,38.40
2023-02-11T03:34:26.756Z,33.40
2023-02-11T03:36:57.453Z,40.70
2023-02-11T03:39:28.059Z,46.10
2023-02-11T03:41:56.237Z,58.70
2023-02-11T03:44:24.975Z,52.00
2023-02-11T03:46:52.999Z,97.20
2023-02-11T03:49:21.639Z,136.30
2023-02-11T03:51:52.848Z,119.70
2023-02-11T03:54:21.814Z,82.60
2023-02-11T03:59:23.177Z,52.80
2023-02-11T04:01:51.610Z,52.00
2023-02-11T04:04:19.759Z,66.40
2023-02-11T04:06:47.819Z,103.90
2023-02-11T04:09:16.230Z,120.80
2023-02-11T04:11:44.281Z,167.90
2023-02-11T04:14:12.370Z,191.10
2023-02-11T04:16:40.507Z,136.50
2023-02-11T04:19:10.576Z,111.90
2023-02-11T04:21:39.128Z,104.30
2023-02-11T04:24:07.178Z,78.50
2023-02-11T04:26:35.319Z,52.10
2023-02-11T04:29:03.382Z,55.00
2023-02-11T04:31:31.606Z,46.20
2023-02-11T04:33:59.698Z,63.60
2023-02-11T04:36:27.894Z,47.50
2023-02-11T04:38:55.967Z,48.30
2023-02-11T04:41:28.112Z,57.90
2023-02-11T04:43:56.219Z,84.80
2023-02-11T04:46:24.370Z,87.80
2023-02-11T04:48:54.797Z,90.50
2023-02-11T04:51:23.331Z,92.50
2023-02-11T04:53:52.297Z,74.50
2023-02-11T04:56:20.550Z,65.60
2023-02-11T04:58:48.978Z,76.80
2023-02-11T05:01:17.538Z,70.60
2023-02-11T05:03:46.098Z,101.30
2023-02-11T05:06:14.188Z,103.20
2023-02-11T05:08:42.317Z,91.50
2023-02-11T05:11:20.225Z,98.30
2023-02-11T05:13:48.450Z,85.50
2023-02-11T05:16:16.760Z,92.60
2023-02-11T05:18:45.381Z,86.70
2023-02-11T05:21:17.520Z,83.90
2023-02-11T05:23:45.806Z,99.90
2023-02-11T05:26:13.855Z,93.40
2023-02-11T05:28:42.245Z,94.30
2023-02-11T05:31:10.857Z,81.90
2023-02-11T05:33:39.160Z,78.80
2023-02-11T05:36:08.519Z,68.70
2023-02-11T05:38:37.104Z,79.90
2023-02-11T05:41:05.369Z,71.80
2023-02-11T05:43:35.346Z,70.10
2023-02-11T05:46:03.812Z,70.10
2023-02-11T05:48:32.676Z,69.10
2023-02-11T05:51:01.008Z,63.30
2023-02-11T05:53:29.194Z,54.20
2023-02-11T05:55:57.626Z,52.00
2023-02-11T05:58:25.848Z,61.10
2023-02-11T06:00:53.972Z,62.20
2023-02-11T06:03:22.478Z,58.60
2023-02-11T06:05:51.005Z,54.10
2023-02-11T06:08:19.266Z,60.40
2023-02-11T06:10:47.523Z,61.20
2023-02-11T06:13:15.644Z,58.20
2023-02-11T06:15:44.777Z,61.80
2023-02-11T06:18:12.997Z,55.50
2023-02-11T06:20:41.694Z,57.40
2023-02-11T06:23:10.537Z,64.10
2023-02-11T06:25:39.010Z,61.70
2023-02-11T06:28:08.739Z,76.70
2023-02-11T06:30:37.667Z,70.50
2023-02-11T06:33:05.985Z,61.40
2023-02-11T06:35:35.976Z,65.10
2023-02-11T06:38:04.186Z,67.70
2023-02-11T06:40:32.313Z,56.40
2023-02-11T06:43:01.004Z,57.40
2023-02-11T06:45:29.746Z,64.20
2023-02-11T06:47:57.920Z,74.30
2023-02-11T06:50:26.037Z,83.80
2023-02-11T06:52:54.346Z,71.20
2023-02-11T06:55:22.924Z,68.70
2023-02-11T06:57:51.492Z,71.70
2023-02-11T07:00:19.725Z,72.80
2023-02-11T07:02:49.531Z,73.10
2023-02-11T07:05:17.742Z,64.30
2023-02-11T07:07:45.884Z,63.00
2023-02-11T07:10:13.976Z,68.40
2023-02-11T07:12:44.495Z,65.30
2023-02-11T07:15:12.628Z,66.70
2023-02-11T07:17:40.956Z,65.60
2023-02-11T07:20:12.600Z,69.30
2023-02-11T07:22:40.804Z,56.00
2023-02-11T07:25:08.933Z,66.20
2023-02-11T07:27:37.703Z,60.90
2023-02-11T07:30:07.406Z,66.10
2023-02-11T07:32:35.764Z,69.80
2023-02-11T07:35:04.107Z,59.30
2023-02-11T07:37:34.047Z,67.00
2023-02-11T07:40:02.455Z,50.20
2023-02-11T07:42:30.663Z,56.90
2023-02-11T07:44:58.847Z,55.40
2023-02-11T07:47:27.830Z,49.50
2023-02-11T07:49:56.892Z,54.10
2023-02-11T07:52:25.047Z,64.10
2023-02-11T07:54:53.519Z,64.00
2023-02-11T07:57:21.788Z,59.00
2023-02-11T07:59:51.631Z,53.10
2023-02-11T08:02:20.079Z,71.00
2023-02-11T08:04:49.333Z,100.70
2023-02-11T08:07:17.693Z,58.70
2023-02-11T08:09:47.571Z,63.90
2023-02-11T08:12:19.468Z,68.60
2023-02-11T08:14:47.951Z,55.50
2023-02-11T08:17:16.534Z,59.30
2023-02-11T08:19:44.618Z,64.70
2023-02-11T08:22:12.975Z,59.50
2023-02-11T08:24:41.286Z,59.30
2023-02-11T08:27:09.548Z,56.80
2023-02-11T08:29:38.053Z,50.30
2023-02-11T08:32:06.201Z,52.80
2023-02-11T08:34:35.317Z,52.20
2023-02-11T08:37:03.456Z,57.50
2023-02-11T08:39:31.614Z,51.10
2023-02-11T08:42:00.216Z,45.50
2023-02-11T08:44:28.389Z,49.90
2023-02-11T08:46:56.609Z,44.60
2023-02-11T08:49:24.756Z,43.80
2023-02-11T08:51:54.300Z,44.80
2023-02-11T08:54:23.252Z,51.80
2023-02-11T08:56:51.508Z,41.70
2023-02-11T08:59:19.774Z,47.60
2023-02-11T09:01:48.916Z,53.60
2023-02-11T09:04:17.228Z,45.70
2023-02-11T09:06:45.620Z,38.40
2023-02-11T09:09:14.567Z,39.00
2023-02-11T09:11:43.978Z,38.80
2023-02-11T09:14:17.305Z,42.90
2023-02-11T09:16:46.455Z,44.30
2023-02-11T09:19:17.837Z,43.50
2023-02-11T09:21:46.385Z,45.60
2023-02-11T09:24:14.888Z,41.80
2023-02-11T09:26:43.560Z,39.90
2023-02-11T09:29:11.874Z,38.50
2023-02-11T09:31:40.115Z,38.90
2023-02-11T09:34:08.995Z,38.80
2023-02-11T09:36:38.722Z,37.00
2023-02-11T09:39:07.853Z,69.20
2023-02-11T09:41:47.384Z,61.10
2023-02-11T09:44:20.459Z,37.20
2023-02-11T09:46:54.680Z,41.40
2023-02-11T09:49:46.055Z,39.20
2023-02-11T09:52:17.191Z,42.40
2023-02-11T09:54:55.107Z,40.90
2023-02-11T09:57:28.976Z,41.70
2023-02-11T09:59:58.086Z,42.80
2023-02-11T10:02:26.487Z,44.20
2023-02-11T10:05:10.552Z,44.40
2023-02-11T10:07:47.958Z,44.90
2023-02-11T10:10:34.320Z,41.60
2023-02-11T10:13:15.283Z,42.60
2023-02-11T10:15:49.873Z,44.00
2023-02-11T10:18:24.506Z,44.10
2023-02-11T10:23:24.872Z,49.00
2023-02-11T10:25:54.816Z,41.50
2023-02-11T10:28:25.173Z,39.70
2023-02-11T10:31:10.404Z,36.00
2023-02-11T10:33:57.103Z,44.80
2023-02-11T10:36:29.316Z,49.20
2023-02-11T10:39:00.696Z,37.60
2023-02-11T10:41:33.244Z,38.70
2023-02-11T10:44:01.724Z,41.10
2023-02-11T10:46:31.548Z,53.90
2023-02-11T10:48:59.794Z,42.00
2023-02-11T10:51:34.559Z,36.60
2023-02-11T10:54:08.340Z,43.80
2023-02-11T10:56:37.496Z,43.70
2023-02-11T10:59:07.845Z,44.70
2023-02-11T11:01:46.425Z,53.20
2023-02-11T11:04:26.736Z,41.10
2023-02-11T11:06:57.483Z,44.40
2023-02-11T11:09:30.655Z,44.90
2023-02-11T11:11:59.160Z,31.10
2023-02-11T11:14:29.227Z,52.70
2023-02-11T11:16:57.554Z,49.00
2023-02-11T11:19:25.762Z,45.10
2023-02-11T11:21:54.569Z,49.50
2023-02-11T11:24:29.954Z,44.30
2023-02-11T11:27:01.795Z,45.40
2023-02-11T11:29:49.945Z,56.10
2023-02-11T11:32:22.569Z,47.70
2023-02-11T11:34:55.907Z,48.00
2023-02-11T11:37:28.420Z,51.10
2023-02-11T11:40:23.038Z,39.30
2023-02-11T11:43:12.076Z,48.30
2023-02-11T11:45:43.632Z,44.10
2023-02-11T11:48:19.811Z,43.90
2023-02-11T11:51:09.354Z,46.20
2023-02-11T11:53:38.937Z,47.50
2023-02-11T11:56:09.717Z,48.10
2023-02-11T11:58:38.421Z,43.70
2023-02-11T12:01:06.680Z,39.60
2023-02-11T12:03:48.833Z,48.90
2023-02-11T12:06:51.880Z,47.50
2023-02-11T12:09:26.655Z,46.60
2023-02-11T12:12:14.088Z,70.90
2023-02-11T12:15:02.175Z,54.80
2023-02-11T12:17:33.907Z,66.00
2023-02-11T12:20:21.182Z,61.20
2023-02-11T12:23:07.659Z,64.30
2023-02-11T12:25:36.162Z,54.30
2023-02-11T12:28:10.566Z,55.10
2023-02-11T12:30:53.643Z,52.30
2023-02-11T12:33:30.986Z,47.70
2023-02-11T12:36:00.491Z,48.00
2023-02-11T12:38:36.807Z,29.80
2023-02-11T12:41:10.482Z,50.20
2023-02-11T12:43:42.844Z,46.70
2023-02-11T12:46:29.883Z,42.60
2023-02-11T12:49:01.679Z,39.80
2023-02-11T12:52:53.436Z,43.90
2023-02-11T12:55:25.681Z,50.40
2023-02-11T12:57:54.679Z,40.10
2023-02-11T13:00:24.913Z,38.50
2023-02-11T13:02:59.455Z,49.70
2023-02-11T13:05:41.026Z,45.30
2023-02-11T13:08:11.572Z,50.60
2023-02-11T13:10:40.789Z,48.30
2023-02-11T13:13:19.065Z,46.90
2023-02-11T13:15:52.279Z,47.20
2023-02-11T13:18:27.216Z,47.80
2023-02-11T13:21:00.173Z,53.40
2023-02-11T13:23:31.922Z,54.50
2023-02-11T13:26:05.790Z,59.20
2023-02-11T13:28:41.674Z,76.20
2023-02-11T13:31:10.254Z,60.00
2023-02-11T13:33:40.217Z,40.70
2023-02-11T13:36:08.449Z,52.80
2023-02-11T13:38:36.996Z,50.20
2023-02-11T13:41:24.985Z,49.30
2023-02-11T13:44:03.410Z,51.20
2023-02-11T13:46:53.223Z,60.40
2023-02-11T13:49:26.450Z,77.10
2023-02-11T13:51:57.997Z,72.00
2023-02-11T13:54:38.612Z,69.30
2023-02-11T13:57:22.321Z,67.00
2023-02-11T13:59:51.446Z,55.40
2023-02-11T14:02:40.367Z,51.60
2023-02-11T14:05:27.445Z,59.60
2023-02-11T14:08:30.559Z,55.30
2023-02-11T14:11:12.512Z,52.80
2023-02-11T14:13:48.291Z,54.20
2023-02-11T14:16:28.183Z,51.20
2023-02-11T14:19:03.891Z,54.50
2023-02-11T14:21:33.612Z,49.60
2023-02-11T14:24:19.891Z,54.40
2023-02-11T14:26:56.633Z,54.00
2023-02-11T14:29:30.750Z,50.00
2023-02-11T14:32:10.871Z,57.20
2023-02-11T14:34:59.701Z,57.00
2023-02-11T14:37:29.272Z,49.00
2023-02-11T14:40:09.924Z,52.30
2023-02-11T14:42:38.310Z,49.60
2023-02-11T14:45:08.175Z,53.60
2023-02-11T14:47:40.878Z,52.60
2023-02-11T14:50:14.691Z,54.30
2023-02-11T14:52:43.645Z,54.40
2023-02-11T14:55:29.249Z,65.10
2023-02-11T14:58:23.892Z,66.00
2023-02-11T15:00:55.084Z,135.00
2023-02-11T15:03:43.163Z,132.10
2023-02-11T15:06:24.865Z,96.20
2023-02-11T15:08:58.380Z,80.50
2023-02-11T15:11:34.123Z,81.00
2023-02-11T15:14:10.021Z,88.00
2023-02-11T15:16:42.689Z,85.00
2023-02-11T15:19:20.073Z,66.10
2023-02-11T15:21:50.724Z,67.70
2023-02-11T15:24:26.386Z,68.00
2023-02-11T15:26:57.868Z,66.10
2023-02-11T15:29:36.479Z,64.50
2023-02-11T15:32:06.092Z,65.70
2023-02-11T15:34:35.382Z,61.30
2023-02-11T15:37:04.235Z,59.20
2023-02-11T15:39:36.960Z,60.00
2023-02-11T15:42:18.367Z,56.60
2023-02-11T15:44:52.274Z,54.70
2023-02-11T15:47:22.989Z,52.40
2023-02-11T15:49:51.469Z,56.60
2023-02-11T15:52:24.354Z,56.70
2023-02-11T15:54:53.054Z,61.80
2023-02-11T15:57:21.845Z,56.50
2023-02-11T15:59:50.911Z,65.70
2023-02-11T16:02:19.168Z,69.20
2023-02-11T16:04:58.088Z,76.70
2023-02-11T16:07:46.271Z,70.70
2023-02-11T16:10:31.072Z,66.30
2023-02-11T16:13:07.108Z,64.10
2023-02-11T16:15:49.987Z,82.10
2023-02-11T16:18:52.037Z,120.00
2023-02-11T16:21:33.468Z,112.10
2023-02-11T16:24:01.746Z,79.50
2023-02-11T16:26:37.183Z,65.00
2023-02-11T16:29:13.468Z,62.10
2023-02-11T16:31:43.759Z,57.20
2023-02-11T16:34:22.375Z,59.40
2023-02-11T16:36:50.921Z,60.20
2023-02-11T16:39:21.770Z,65.30
2023-02-11T16:41:52.602Z,64.90
2023-02-11T16:44:21.742Z,64.00
2023-02-11T16:46:52.027Z,64.30
2023-02-11T16:49:24.476Z,70.90
2023-02-11T16:51:53.418Z,69.30
2023-02-11T16:54:23.696Z,66.50
2023-02-11T16:56:52.498Z,62.60
2023-02-11T16:59:20.625Z,84.80
2023-02-11T17:01:48.930Z,88.00
2023-02-11T17:04:18.839Z,93.40
2023-02-11T17:06:50.718Z,84.80
2023-02-11T17:09:20.108Z,94.40
2023-02-11T17:11:50.390Z,109.60
2023-02-11T17:14:19.330Z,133.10
2023-02-11T17:16:47.927Z,124.60
2023-02-11T17:19:20.725Z,100.90
2023-02-11T17:21:49.651Z,104.40
2023-02-11T17:24:18.643Z,68.60
2023-02-11T17:26:47.085Z,84.50
2023-02-11T17:29:16.375Z,77.90
2023-02-11T17:31:45.162Z,75.20
2023-02-11T17:34:13.364Z,71.80
2023-02-11T17:36:42.493Z,69.10
2023-02-11T17:39:12.261Z,67.10
2023-02-11T17:41:40.868Z,63.30
2023-02-11T17:44:10.970Z,65.70
2023-02-11T17:46:39.420Z,61.10
2023-02-11T17:49:11.743Z,68.20
2023-02-11T17:51:43.666Z,63.80
2023-02-11T17:54:13.153Z,69.70
2023-02-11T17:56:41.457Z,69.50
2023-02-11T17:59:10.291Z,62.20
2023-02-11T18:01:39.699Z,62.00
2023-02-11T18:04:12.597Z,63.80
2023-02-11T18:06:41.003Z,66.00
2023-02-11T18:09:09.184Z,63.90
2023-02-11T18:11:37.842Z,68.90
2023-02-11T18:14:07.912Z,61.30
2023-02-11T18:16:43.281Z,59.20
2023-02-11T18:19:12.270Z,63.30
2023-02-11T18:21:42.032Z,61.50
2023-02-11T18:24:11.883Z,71.50
2023-02-11T18:26:42.883Z,60.50
2023-02-11T18:29:11.192Z,59.80
2023-02-11T18:31:39.667Z,55.00
2023-02-11T18:34:08.638Z,57.30
2023-02-11T18:36:36.884Z,64.70
2023-02-11T18:39:06.074Z,56.20
2023-02-11T18:41:34.731Z,55.80
2023-02-11T18:44:05.249Z,50.40
2023-02-11T18:46:34.315Z,54.60
2023-02-11T18:49:02.790Z,50.80
2023-02-11T18:51:32.496Z,50.50
2023-02-11T18:54:02.614Z,53.50
2023-02-11T18:56:30.872Z,56.30
2023-02-11T18:59:01.533Z,58.10
2023-02-11T19:01:31.532Z,54.00
2023-02-11T19:04:03.006Z,53.30
2023-02-11T19:06:33.824Z,48.70
2023-02-11T19:09:10.412Z,49.90
2023-02-11T19:11:49.116Z,47.40
2023-02-11T19:14:19.160Z,48.10
2023-02-11T19:16:47.752Z,48.40
2023-02-11T19:19:17.644Z,59.30
2023-02-11T19:21:47.946Z,49.00
2023-02-11T19:24:19.239Z,53.50
2023-02-11T19:26:50.240Z,47.30
2023-02-11T19:29:19.760Z,46.00
2023-02-11T19:31:48.871Z,53.60
2023-02-11T19:34:20.409Z,57.60
2023-02-11T19:36:56.815Z,62.50
2023-02-11T19:39:27.210Z,67.80
2023-02-11T19:41:56.517Z,68.00
2023-02-11T19:44:25.794Z,62.70
2023-02-11T19:46:55.145Z,65.40
2023-02-11T19:49:26.719Z,63.00
2023-02-11T19:51:57.927Z,62.90
2023-02-11T19:54:27.255Z,60.40
2023-02-11T19:56:56.393Z,57.70
2023-02-11T19:59:25.580Z,67.10
2023-02-11T20:01:55.243Z,65.10
2023-02-11T20:04:27.252Z,59.10
2023-02-11T20:06:56.529Z,63.40
2023-02-11T20:09:29.056Z,60.90
2023-02-11T20:11:58.594Z,85.00
2023-02-11T20:14:28.221Z,102.60
2023-02-11T20:16:57.448Z,178.30
2023-02-11T20:19:27.341Z,260.30
2023-02-11T20:21:56.306Z,171.90
2023-02-11T20:24:25.736Z,105.10
2023-02-11T20:26:56.281Z,116.40
2023-02-11T20:29:26.043Z,142.50
2023-02-11T20:31:56.372Z,126.20
2023-02-11T20:34:25.665Z,143.80
2023-02-11T20:36:55.293Z,103.10
2023-02-11T20:39:25.198Z,80.60
2023-02-11T20:41:54.860Z,54.60
2023-02-11T20:44:23.642Z,47.80
2023-02-11T20:46:54.318Z,48.70
2023-02-11T20:49:23.813Z,49.80
2023-02-11T20:51:54.311Z,43.70
2023-02-11T20:54:23.475Z,39.10
2023-02-11T20:56:56.332Z,39.00
2023-02-11T20:59:25.657Z,42.10
2023-02-11T21:01:55.744Z,43.30
2023-02-11T21:04:25.139Z,41.50
2023-02-11T21:06:54.818Z,38.90
2023-02-11T21:09:23.963Z,42.10
2023-02-11T21:11:52.792Z,36.30
2023-02-11T21:14:22.516Z,40.90
2023-02-11T21:16:50.901Z,33.40
2023-02-11T21:19:19.255Z,38.60
2023-02-11T21:21:47.530Z,36.90
2023-02-11T21:24:16.558Z,38.00
2023-02-11T21:26:48.943Z,31.80
2023-02-11T21:29:17.426Z,38.50
2023-02-11T21:31:46.419Z,36.20
2023-02-11T21:34:16.537Z,37.80
2023-02-11T21:36:45.378Z,32.10
2023-02-11T21:39:16.354Z,32.30
2023-02-11T21:41:44.687Z,32.60
2023-02-11T21:44:12.984Z,38.00
2023-02-11T21:46:42.777Z,37.60
2023-02-11T21:49:11.751Z,35.60
2023-02-11T21:51:40.049Z,36.00
2023-02-11T21:54:08.754Z,31.10
2023-02-11T21:56:37.532Z,35.20
2023-02-11T21:59:05.769Z,31.90
2023-02-11T22:01:36.572Z,30.20
2023-02-11T22:04:04.752Z,34.30
2023-02-11T22:06:34.352Z,35.60
2023-02-11T22:09:03.783Z,34.80
2023-02-11T22:11:33.021Z,35.50
2023-02-11T22:14:01.833Z,33.70
2023-02-11T22:16:31.081Z,33.70
2023-02-11T22:18:59.753Z,36.40
2023-02-11T22:21:28.233Z,35.50
2023-02-11T22:23:56.608Z,44.50
2023-02-11T22:26:26.232Z,35.70
2023-02-11T22:28:55.108Z,25.90
2023-02-11T22:31:27.312Z,35.80
2023-02-11T22:33:55.815Z,35.70
2023-02-11T22:36:33.647Z,34.70
2023-02-11T22:39:06.554Z,36.50
2023-02-11T22:41:34.754Z,34.80
2023-02-11T22:44:03.223Z,32.90
2023-02-11T22:46:31.590Z,38.70
2023-02-11T22:49:00.328Z,35.20
2023-02-11T22:51:29.120Z,37.40
2023-02-11T22:53:58.768Z,38.40
2023-02-11T22:56:28.018Z,36.00
2023-02-11T22:59:00.567Z,36.80
2023-02-11T23:01:29.808Z,36.00
2023-02-11T23:04:02.195Z,36.80
2023-02-11T23:06:30.629Z,32.70
2023-02-11T23:08:58.993Z,37.00
2023-02-11T23:11:28.362Z,35.90
2023-02-11T23:13:59.266Z,32.10
2023-02-11T23:16:31.535Z,33.70
2023-02-11T23:19:00.327Z,37.10
2023-02-11T23:21:29.509Z,35.30
2023-02-11T23:24:06.126Z,34.30
2023-02-11T23:26:34.806Z,39.10
2023-02-11T23:29:03.319Z,34.80
2023-02-11T23:31:35.000Z,38.00
2023-02-11T23:34:03.674Z,34.50
2023-02-11T23:36:31.789Z,35.70
2023-02-11T23:39:04.456Z,32.20
2023-02-11T23:41:32.989Z,36.80
2023-02-11T23:44:01.262Z,33.30
2023-02-11T23:46:30.286Z,32.30
2023-02-11T23:48:58.461Z,33.00
2023-02-11T23:51:26.641Z,40.10
2023-02-11T23:53:56.343Z,35.20
2023-02-11T23:56:25.695Z,36.50
2023-02-11T23:58:54.607Z,34.90
